createdAt,value
2022-12-19T00:00:36.963Z,0.70
2022-12-19T00:03:05.329Z,0.80
2022-12-19T00:05:38.004Z,0.70
2022-12-19T00:08:17.040Z,0.70
2022-12-19T00:10:45.796Z,0.80
2022-12-19T00:13:15.933Z,0.80
2022-12-19T00:15:45.335Z,0.80
2022-12-19T00:18:13.257Z,0.80
2022-12-19T00:20:41.190Z,0.70
2022-12-19T00:23:09.538Z,0.70
2022-12-19T00:25:37.455Z,0.80
2022-12-19T00:28:08.053Z,0.80
2022-12-19T00:30:36.127Z,0.90
2022-12-19T00:33:05.562Z,0.90
2022-12-19T00:35:33.538Z,0.90
2022-12-19T00:38:02.736Z,0.90
2022-12-19T00:40:30.692Z,1.00
2022-12-19T00:42:58.661Z,1.00
2022-12-19T00:45:28.781Z,1.00
2022-12-19T00:47:58.280Z,1.00
2022-12-19T00:50:27.624Z,1.00
2022-12-19T00:52:55.697Z,1.00
2022-12-19T00:55:23.693Z,1.00
2022-12-19T00:57:51.943Z,1.00
2022-12-19T01:00:23.905Z,1.00
2022-12-19T01:02:52.037Z,1.00
2022-12-19T01:05:20.169Z,1.00
2022-12-19T01:07:49.899Z,1.10
2022-12-19T01:10:17.984Z,1.10
2022-12-19T01:12:47.929Z,1.10
2022-12-19T01:15:18.474Z,1.10
2022-12-19T01:17:46.608Z,1.10
2022-12-19T01:20:16.807Z,1.10
2022-12-19T01:22:48.287Z,1.10
2022-12-19T01:25:18.717Z,1.10
2022-12-19T01:27:46.730Z,1.10
2022-12-19T01:30:15.080Z,1.10
2022-12-19T01:32:43.431Z,1.10
2022-12-19T01:35:21.098Z,1.20
2022-12-19T01:37:50.229Z,1.20
2022-12-19T01:40:19.962Z,1.20
2022-12-19T01:42:48.825Z,1.20
2022-12-19T01:45:37.403Z,1.20
2022-12-19T01:48:17.648Z,1.20
2022-12-19T01:51:00.803Z,1.20
2022-12-19T01:53:34.482Z,1.20
2022-12-19T01:56:09.009Z,1.30
2022-12-19T01:58:39.231Z,1.30
2022-12-19T02:01:08.995Z,1.30
2022-12-19T02:03:39.507Z,1.30
2022-12-19T02:06:10.086Z,1.30
2022-12-19T02:08:39.289Z,1.30
2022-12-19T02:11:08.688Z,1.30
2022-12-19T02:13:36.925Z,1.30
2022-12-19T02:16:15.682Z,1.30
2022-12-19T02:18:51.891Z,1.30
2022-12-19T02:21:28.286Z,1.30
2022-12-19T02:24:27.246Z,1.40
2022-12-19T02:27:07.455Z,1.40
2022-12-19T02:30:03.988Z,1.40
2022-12-19T02:32:38.793Z,1.40
2022-12-19T02:35:13.432Z,1.40
2022-12-19T02:37:49.460Z,1.50
2022-12-19T02:40:26.755Z,1.50
2022-12-19T02:42:59.727Z,1.50
2022-12-19T02:45:33.054Z,1.50
2022-12-19T02:48:08.591Z,1.50
2022-12-19T02:50:39.373Z,1.50
2022-12-19T02:53:08.057Z,1.50
2022-12-19T02:55:43.522Z,1.50
2022-12-19T02:58:31.753Z,1.60
2022-12-19T03:01:10.372Z,1.60
2022-12-19T03:03:48.565Z,1.50
2022-12-19T03:06:25.900Z,1.60
2022-12-19T03:09:01.130Z,1.60
2022-12-19T03:11:33.802Z,1.60
2022-12-19T03:14:05.687Z,1.70
2022-12-19T03:16:36.600Z,1.70
2022-12-19T03:19:09.795Z,1.70
2022-12-19T03:21:40.731Z,1.80
2022-12-19T03:24:10.479Z,1.80
2022-12-19T03:26:43.128Z,1.90
2022-12-19T03:29:16.588Z,1.90
2022-12-19T03:31:47.242Z,1.90
2022-12-19T03:34:20.146Z,1.90
2022-12-19T03:36:53.014Z,1.90
2022-12-19T03:39:23.005Z,2.00
2022-12-19T03:42:10.208Z,1.90
2022-12-19T03:44:43.318Z,1.90
2022-12-19T03:47:16.909Z,2.00
2022-12-19T03:49:47.172Z,2.00
2022-12-19T03:52:25.498Z,2.00
2022-12-19T03:55:01.939Z,2.10
2022-12-19T03:57:36.030Z,2.10
2022-12-19T04:00:07.063Z,2.00
2022-12-19T04:02:38.420Z,2.10
2022-12-19T04:05:10.358Z,2.10
2022-12-19T04:07:47.744Z,2.10
2022-12-19T04:10:19.562Z,2.10
2022-12-19T04:12:53.466Z,2.10
2022-12-19T04:15:29.225Z,2.20
2022-12-19T04:17:59.310Z,2.10
2022-12-19T04:20:31.284Z,2.20
2022-12-19T04:23:04.692Z,2.10
2022-12-19T04:25:36.202Z,2.20
2022-12-19T04:28:13.518Z,2.20
2022-12-19T04:30:43.977Z,2.20
2022-12-19T04:33:18.344Z,2.20
2022-12-19T04:35:47.843Z,2.20
2022-12-19T04:38:18.922Z,2.20
2022-12-19T04:40:46.962Z,2.20
2022-12-19T04:43:25.133Z,2.20
2022-12-19T04:45:57.382Z,2.30
2022-12-19T04:48:26.090Z,2.30
2022-12-19T04:50:56.636Z,2.30
2022-12-19T04:53:26.213Z,2.40
2022-12-19T04:56:02.148Z,2.40
2022-12-19T04:58:30.125Z,2.40
2022-12-19T05:01:07.971Z,2.40
2022-12-19T05:03:37.159Z,2.40
2022-12-19T05:06:10.746Z,2.50
2022-12-19T05:08:40.579Z,2.40
2022-12-19T05:11:15.933Z,2.50
2022-12-19T05:13:53.442Z,2.50
2022-12-19T05:16:21.682Z,2.50
2022-12-19T05:18:52.663Z,2.50
2022-12-19T05:21:22.722Z,2.50
2022-12-19T05:23:55.526Z,2.50
2022-12-19T05:26:24.059Z,2.60
2022-12-19T05:28:52.065Z,2.60
2022-12-19T05:31:21.950Z,2.60
2022-12-19T05:33:50.717Z,2.60
2022-12-19T05:36:32.340Z,2.60
2022-12-19T05:39:05.552Z,2.60
2022-12-19T05:41:33.594Z,2.60
2022-12-19T05:44:06.512Z,2.60
2022-12-19T05:46:34.819Z,2.60
2022-12-19T05:49:10.548Z,2.60
2022-12-19T05:51:44.362Z,2.70
2022-12-19T05:54:14.903Z,2.70
2022-12-19T05:56:43.334Z,2.70
2022-12-19T05:59:13.379Z,2.70
2022-12-19T06:01:42.262Z,2.70
2022-12-19T06:04:13.419Z,2.80
2022-12-19T06:06:43.094Z,2.80
2022-12-19T06:09:15.847Z,2.80
2022-12-19T06:11:44.003Z,2.90
2022-12-19T06:14:22.229Z,2.90
2022-12-19T06:16:51.214Z,2.90
2022-12-19T06:19:22.342Z,3.00
2022-12-19T06:21:51.868Z,3.00
2022-12-19T06:24:26.032Z,3.00
2022-12-19T06:26:54.160Z,3.00
2022-12-19T06:29:28.288Z,3.00
2022-12-19T06:31:56.780Z,3.10
2022-12-19T06:34:55.217Z,3.10
2022-12-19T06:37:16.177Z,3.10
2022-12-19T06:39:45.826Z,3.10
2022-12-19T06:42:24.783Z,3.10
2022-12-19T06:44:54.140Z,3.10
2022-12-19T06:47:23.386Z,3.10
2022-12-19T06:50:12.168Z,3.10
2022-12-19T06:52:45.191Z,3.10
2022-12-19T06:55:15.288Z,3.10
2022-12-19T06:57:46.099Z,3.10
2022-12-19T07:00:15.001Z,3.10
2022-12-19T07:02:46.684Z,3.10
2022-12-19T07:05:17.778Z,3.20
2022-12-19T07:07:47.199Z,3.20
2022-12-19T07:10:15.741Z,3.30
2022-12-19T07:12:43.840Z,3.20
2022-12-19T07:15:13.267Z,3.20
2022-12-19T07:17:43.607Z,3.30
2022-12-19T07:20:13.156Z,3.30
2022-12-19T07:22:45.727Z,3.30
2022-12-19T07:25:17.631Z,3.40
2022-12-19T07:27:47.764Z,3.40
2022-12-19T07:30:15.774Z,3.40
2022-12-19T07:32:43.791Z,3.50
2022-12-19T07:35:12.660Z,3.50
2022-12-19T07:37:41.027Z,3.50
2022-12-19T07:40:10.902Z,3.50
2022-12-19T07:42:40.277Z,3.60
2022-12-19T07:45:09.148Z,3.60
2022-12-19T07:47:37.133Z,3.60
2022-12-19T07:50:05.898Z,3.70
2022-12-19T07:52:38.189Z,3.70
2022-12-19T07:55:06.936Z,3.70
2022-12-19T07:57:38.156Z,3.70
2022-12-19T08:00:09.125Z,3.80
2022-12-19T08:02:41.394Z,3.80
2022-12-19T08:05:10.359Z,3.80
2022-12-19T08:07:38.373Z,3.80
2022-12-19T08:10:07.838Z,3.80
2022-12-19T08:12:35.883Z,3.80
2022-12-19T08:15:09.597Z,3.80
2022-12-19T08:17:49.503Z,3.90
2022-12-19T08:20:17.797Z,3.90
2022-12-19T08:22:51.838Z,4.00
2022-12-19T08:25:19.823Z,4.00
2022-12-19T08:27:51.435Z,3.90
2022-12-19T08:30:19.890Z,4.00
2022-12-19T08:32:53.732Z,4.00
2022-12-19T08:35:22.904Z,4.00
2022-12-19T08:37:56.063Z,4.10
2022-12-19T08:40:24.562Z,4.10
2022-12-19T08:42:56.611Z,4.10
2022-12-19T08:45:25.155Z,4.10
2022-12-19T08:48:01.663Z,4.10
2022-12-19T08:50:29.802Z,4.20
2022-12-19T08:53:01.274Z,4.20
2022-12-19T08:55:29.768Z,4.20
2022-12-19T08:57:59.271Z,4.20
2022-12-19T09:00:29.557Z,4.30
2022-12-19T09:03:04.408Z,4.30
2022-12-19T09:05:59.365Z,4.30
2022-12-19T09:08:26.485Z,4.30
2022-12-19T09:10:59.738Z,4.30
2022-12-19T09:13:28.692Z,4.40
2022-12-19T09:32:06.614Z,4.60
2022-12-19T09:34:37.365Z,4.60
2022-12-19T09:37:16.710Z,4.60
2022-12-19T09:39:47.932Z,4.70
2022-12-19T09:42:50.953Z,4.70
2022-12-19T09:45:42.180Z,4.70
2022-12-19T09:48:23.946Z,4.80
2022-12-19T09:51:10.668Z,4.80
2022-12-19T09:53:54.453Z,4.80
2022-12-19T09:56:29.887Z,4.90
2022-12-19T09:59:26.201Z,4.90
2022-12-19T10:02:13.230Z,5.00
2022-12-19T10:04:52.138Z,5.00
2022-12-19T10:07:54.768Z,5.00
2022-12-19T10:12:36.355Z,5.10
2022-12-19T10:13:27.747Z,5.10
2022-12-19T10:16:05.126Z,5.20
2022-12-19T10:18:56.500Z,5.30
2022-12-19T10:22:16.402Z,5.30
2022-12-19T10:25:12.841Z,5.40
2022-12-19T10:27:58.808Z,5.40
2022-12-19T10:30:38.832Z,5.50
2022-12-19T10:33:21.099Z,5.50
2022-12-19T10:36:02.035Z,5.60
2022-12-19T10:38:47.343Z,5.60
2022-12-19T10:41:39.273Z,5.60
2022-12-19T10:44:19.812Z,5.70
2022-12-19T10:46:50.406Z,5.70
2022-12-19T10:49:22.411Z,5.80
2022-12-19T10:52:09.245Z,5.80
2022-12-19T10:54:43.955Z,5.90
2022-12-19T10:57:26.433Z,5.90
2022-12-19T11:00:04.042Z,5.90
2022-12-19T11:02:45.617Z,6.00
2022-12-19T11:05:31.087Z,6.00
2022-12-19T11:08:16.678Z,6.10
2022-12-19T11:12:26.331Z,6.10
2022-12-19T11:20:12.363Z,6.10
2022-12-19T11:24:27.994Z,6.20
2022-12-19T11:29:16.740Z,6.30
2022-12-19T11:30:08.652Z,6.30
2022-12-19T11:30:39.347Z,6.30
2022-12-19T11:30:45.425Z,6.40
2022-12-19T11:34:07.261Z,6.50
2022-12-19T11:36:42.503Z,6.60
2022-12-19T11:39:17.095Z,6.60
2022-12-19T11:41:53.898Z,6.60
2022-12-19T11:44:30.543Z,6.70
2022-12-19T11:47:07.602Z,6.70
2022-12-19T11:49:41.805Z,6.70
2022-12-19T11:53:02.471Z,6.80
2022-12-19T11:55:18.870Z,6.80
2022-12-19T11:57:48.306Z,6.90
2022-12-19T12:00:22.603Z,6.80
2022-12-19T12:03:05.259Z,6.90
2022-12-19T12:05:45.966Z,6.90
2022-12-19T12:10:43.621Z,6.90
2022-12-19T12:19:05.811Z,6.90
2022-12-19T12:23:01.092Z,7.00
2022-12-19T12:30:05.550Z,7.00
2022-12-19T12:31:23.724Z,7.00
2022-12-19T12:31:41.206Z,7.00
2022-12-19T12:31:43.409Z,7.10
2022-12-19T12:31:57.037Z,7.00
2022-12-19T12:35:33.129Z,7.10
2022-12-19T12:38:37.892Z,7.10
2022-12-19T12:41:18.729Z,7.10
2022-12-19T12:44:06.007Z,7.10
2022-12-19T12:46:40.877Z,7.20
2022-12-19T12:49:33.491Z,7.20
2022-12-19T12:52:05.719Z,7.20
2022-12-19T12:54:37.533Z,7.20
2022-12-19T12:57:05.847Z,7.20
2022-12-19T12:59:33.934Z,7.30
2022-12-19T13:02:14.468Z,7.20
2022-12-19T13:04:47.077Z,7.30
2022-12-19T13:07:30.258Z,7.30
2022-12-19T13:10:19.573Z,7.30
2022-12-19T13:13:02.725Z,7.30
2022-12-19T13:15:48.531Z,7.30
2022-12-19T13:18:40.612Z,7.30
2022-12-19T13:21:10.679Z,7.30
2022-12-19T13:24:16.119Z,7.30
2022-12-19T13:26:49.330Z,7.30
2022-12-19T13:29:31.116Z,7.40
2022-12-19T13:32:10.809Z,7.40
2022-12-19T13:34:39.458Z,7.40
2022-12-19T13:39:59.351Z,7.40
2022-12-19T13:40:33.067Z,7.40
2022-12-19T13:43:30.450Z,7.50
2022-12-19T13:46:00.891Z,7.40
2022-12-19T13:48:33.845Z,7.50
2022-12-19T13:51:06.485Z,7.50
2022-12-19T13:53:34.892Z,7.50
2022-12-19T13:56:07.029Z,7.50
2022-12-19T13:58:43.061Z,7.50
2022-12-19T14:01:21.479Z,7.60
2022-12-19T14:03:52.574Z,7.50
2022-12-19T14:06:22.957Z,7.60
2022-12-19T14:09:46.189Z,7.60
2022-12-19T14:12:23.776Z,7.60
2022-12-19T14:14:57.977Z,7.60
2022-12-19T14:17:39.714Z,7.60
2022-12-19T14:20:54.317Z,7.60
2022-12-19T14:23:07.761Z,7.70
2022-12-19T14:54:32.372Z,7.80
2022-12-19T14:58:52.800Z,7.80
2022-12-19T15:01:07.828Z,7.80
2022-12-19T15:17:05.650Z,7.90
2022-12-19T15:19:33.857Z,7.80
2022-12-19T15:38:08.298Z,7.90
2022-12-19T15:40:36.254Z,8.00
2022-12-19T15:43:05.446Z,8.00
2022-12-19T15:45:34.343Z,8.00
2022-12-19T15:48:02.363Z,8.00
2022-12-19T15:50:32.274Z,8.00
2022-12-19T15:53:03.356Z,8.00
2022-12-19T15:55:32.770Z,8.00
2022-12-19T16:14:07.344Z,8.10
2022-12-19T16:19:25.150Z,8.10
2022-12-19T16:21:54.398Z,8.10
2022-12-19T16:24:23.459Z,8.20
2022-12-19T16:26:55.394Z,8.20
2022-12-19T16:29:27.720Z,8.20
2022-12-19T16:31:57.552Z,8.20
2022-12-19T16:34:26.614Z,8.20
2022-12-19T16:36:54.866Z,8.10
2022-12-19T16:39:23.255Z,8.10
2022-12-19T16:41:51.804Z,8.10
2022-12-19T16:44:21.961Z,8.10
2022-12-19T16:46:52.761Z,8.10
2022-12-19T16:49:23.708Z,8.10
2022-12-19T16:51:53.004Z,8.10
2022-12-19T16:54:21.187Z,8.10
2022-12-19T16:56:51.248Z,8.10
2022-12-19T16:59:22.120Z,8.10
2022-12-19T17:01:52.337Z,8.10
2022-12-19T17:04:22.954Z,8.00
2022-12-19T17:06:52.838Z,8.00
2022-12-19T17:09:23.376Z,8.10
2022-12-19T17:11:53.945Z,8.10
2022-12-19T17:14:24.585Z,8.10
2022-12-19T17:16:58.437Z,8.10
2022-12-19T17:19:33.646Z,8.00
2022-12-19T17:22:01.799Z,8.10
2022-12-19T17:24:29.971Z,8.10
2022-12-19T17:26:58.177Z,8.10
2022-12-19T17:29:26.422Z,8.10
2022-12-19T17:31:56.056Z,8.10
2022-12-19T17:34:29.855Z,8.10
2022-12-19T17:36:59.906Z,8.10
2022-12-19T17:39:33.868Z,8.00
2022-12-19T17:42:11.654Z,8.10
2022-12-19T17:44:40.506Z,8.10
2022-12-19T17:47:14.209Z,8.10
2022-12-19T17:49:42.978Z,8.10
2022-12-19T17:52:15.300Z,8.10
2022-12-19T18:00:17.242Z,8.20
2022-12-19T18:06:13.592Z,8.20
2022-12-19T18:08:44.769Z,8.30
2022-12-19T18:11:19.795Z,8.30
2022-12-19T18:13:48.910Z,8.30
2022-12-19T18:16:19.047Z,8.30
2022-12-19T18:18:48.600Z,8.30
2022-12-19T18:21:20.862Z,8.40
2022-12-19T18:29:06.095Z,8.40
2022-12-19T18:31:36.212Z,8.40
2022-12-19T18:52:29.553Z,8.40
2022-12-19T18:54:58.229Z,8.40
2022-12-19T19:02:54.391Z,8.40
2022-12-19T19:17:07.303Z,8.40
2022-12-19T19:19:49.682Z,8.50
2022-12-19T19:27:50.342Z,8.50
2022-12-19T19:30:20.280Z,8.40
2022-12-19T19:33:10.981Z,8.50
2022-12-19T19:35:40.000Z,8.50
2022-12-19T19:47:45.401Z,8.50
2022-12-19T19:58:46.342Z,8.60
2022-12-19T20:01:16.046Z,8.60
2022-12-19T20:17:34.326Z,8.50
2022-12-19T20:20:16.386Z,8.50
2022-12-19T20:25:32.048Z,8.40
2022-12-19T20:28:00.628Z,8.40
2022-12-19T20:30:29.542Z,8.40
2022-12-19T20:32:58.512Z,8.30
2022-12-19T20:35:29.861Z,8.30
2022-12-19T20:38:00.507Z,8.20
2022-12-19T20:43:05.410Z,8.30
2022-12-19T20:45:35.597Z,8.30
2022-12-19T20:48:04.849Z,8.20
2022-12-19T20:50:38.143Z,8.20
2022-12-19T20:53:11.273Z,8.20
2022-12-19T20:55:43.809Z,8.30
2022-12-19T20:58:12.671Z,8.30
2022-12-19T21:00:41.016Z,8.30
2022-12-19T21:05:59.704Z,8.30
2022-12-19T21:08:32.950Z,8.20
2022-12-19T21:11:02.007Z,8.20
2022-12-19T21:13:31.924Z,8.30
2022-12-19T21:18:48.066Z,8.40
2022-12-19T21:21:30.791Z,8.30
2022-12-19T21:24:03.382Z,8.40
2022-12-19T21:26:32.925Z,8.40
2022-12-19T21:29:01.082Z,8.40
2022-12-19T21:31:31.390Z,8.40
2022-12-19T21:34:09.927Z,8.40
2022-12-19T21:36:39.865Z,8.40
2022-12-19T21:39:08.374Z,8.40
2022-12-19T21:41:36.580Z,8.40
2022-12-19T21:44:05.179Z,8.40
2022-12-19T21:46:35.502Z,8.40
2022-12-19T21:49:04.051Z,8.40
2022-12-19T21:51:34.326Z,8.40
2022-12-19T21:54:06.956Z,8.40
2022-12-19T21:56:37.118Z,8.40
2022-12-19T22:01:42.375Z,8.40
2022-12-19T22:04:13.826Z,8.40
2022-12-19T22:06:46.700Z,8.40
2022-12-19T22:11:58.255Z,8.40
2022-12-19T22:14:30.197Z,8.40
2022-12-19T22:16:58.658Z,8.40
2022-12-19T22:22:03.195Z,8.40
2022-12-19T22:24:34.708Z,8.50
2022-12-19T22:27:09.881Z,8.40
2022-12-19T22:29:39.119Z,8.50
2022-12-19T22:34:43.380Z,8.50
2022-12-19T22:37:11.668Z,8.50
2022-12-19T22:50:22.511Z,8.60
2022-12-19T22:52:50.894Z,8.60
2022-12-19T22:57:54.741Z,8.70
2022-12-19T23:00:23.573Z,8.70
2022-12-19T23:02:58.413Z,8.70
2022-12-19T23:05:29.338Z,8.70
2022-12-19T23:08:02.364Z,8.70
2022-12-19T23:10:30.680Z,8.80
2022-12-19T23:12:59.214Z,8.80
2022-12-19T23:15:27.461Z,8.70
2022-12-19T23:20:31.367Z,8.70
2022-12-19T23:22:59.761Z,8.70
2022-12-19T23:25:28.048Z,8.70
2022-12-19T23:27:58.651Z,8.70
2022-12-19T23:30:31.216Z,8.70
2022-12-19T23:33:00.981Z,8.70
2022-12-19T23:35:32.930Z,8.70
2022-12-19T23:38:02.341Z,8.70
2022-12-19T23:40:30.664Z,8.70
2022-12-19T23:42:59.126Z,8.70
2022-12-19T23:45:27.372Z,8.70
2022-12-19T23:47:55.575Z,8.70
2022-12-19T23:50:23.765Z,8.70
2022-12-19T23:52:53.648Z,8.70
2022-12-19T23:55:21.989Z,8.70
2022-12-19T23:57:50.469Z,8.80
